createdAt,value
2019-02-09T00:00:18.876Z,5.50
2019-02-09T00:02:52.668Z,5.50
2019-02-09T00:05:26.327Z,5.50
2019-02-09T00:08:00.006Z,5.60
2019-02-09T00:10:33.582Z,5.60
2019-02-09T00:13:08.120Z,5.50
2019-02-09T00:15:42.592Z,5.40
2019-02-09T00:18:16.414Z,5.40
2019-02-09T00:20:50.932Z,5.50
2019-02-09T00:23:24.671Z,5.50
2019-02-09T00:25:58.363Z,5.60
2019-02-09T00:28:32.086Z,5.60
2019-02-09T00:31:05.957Z,5.60
2019-02-09T00:33:39.592Z,5.60
2019-02-09T00:36:13.401Z,5.60
2019-02-09T00:38:47.878Z,5.50
2019-02-09T00:41:22.373Z,5.50
2019-02-09T00:43:55.990Z,5.50
2019-02-09T00:46:29.656Z,5.60
2019-02-09T00:49:03.335Z,5.50
2019-02-09T00:51:36.878Z,5.50
2019-02-09T00:54:10.685Z,5.50
2019-02-09T00:56:44.437Z,5.50
2019-02-09T00:59:18.163Z,5.50
2019-02-09T01:01:52.583Z,5.60
2019-02-09T01:04:26.284Z,5.60
2019-02-09T01:07:00.064Z,5.60
2019-02-09T01:09:33.679Z,5.70
2019-02-09T01:12:07.391Z,5.80
2019-02-09T01:14:41.214Z,5.80
2019-02-09T01:17:14.831Z,6.00
2019-02-09T01:19:48.469Z,6.10
2019-02-09T01:22:22.793Z,6.10
2019-02-09T01:24:56.407Z,6.00
2019-02-09T01:27:30.117Z,6.10
2019-02-09T01:30:14.575Z,6.10
2019-02-09T01:32:48.243Z,6.00
2019-02-09T01:35:22.685Z,6.10
2019-02-09T01:37:56.324Z,6.10
2019-02-09T01:40:29.877Z,6.10
2019-02-09T01:43:03.747Z,6.40
2019-02-09T01:45:38.173Z,6.60
2019-02-09T01:48:11.818Z,6.60
2019-02-09T01:50:45.516Z,6.60
2019-02-09T01:53:19.098Z,6.60
2019-02-09T01:55:52.676Z,6.70
2019-02-09T01:58:26.228Z,6.80
2019-02-09T02:01:00.715Z,6.90
2019-02-09T02:03:34.347Z,6.90
2019-02-09T02:06:07.980Z,6.90
2019-02-09T02:08:41.615Z,6.90
2019-02-09T02:11:16.063Z,7.10
2019-02-09T02:13:49.773Z,7.00
2019-02-09T02:16:23.364Z,7.10
2019-02-09T02:18:57.862Z,7.10
2019-02-09T02:21:31.453Z,7.10
2019-02-09T02:24:05.295Z,7.10
2019-02-09T02:26:38.951Z,7.10
2019-02-09T02:29:12.683Z,7.20
2019-02-09T02:31:46.302Z,7.20
2019-02-09T02:34:19.813Z,7.20
2019-02-09T02:36:53.541Z,7.30
2019-02-09T02:39:27.180Z,7.30
2019-02-09T02:42:00.844Z,7.30
2019-02-09T02:44:34.598Z,7.30
2019-02-09T02:47:08.197Z,7.30
2019-02-09T02:49:42.632Z,7.50
2019-02-09T02:52:17.026Z,7.50
2019-02-09T02:54:50.688Z,7.50
2019-02-09T02:57:24.327Z,7.60
2019-02-09T02:59:57.866Z,7.70
2019-02-09T03:02:32.327Z,7.90
2019-02-09T03:05:06.886Z,7.90
2019-02-09T03:07:40.564Z,7.90
2019-02-09T03:10:14.228Z,7.90
2019-02-09T03:12:47.824Z,8.00
2019-02-09T03:15:32.070Z,8.00
2019-02-09T03:18:05.670Z,8.10
2019-02-09T03:20:39.244Z,8.10
2019-02-09T03:23:12.851Z,8.00
2019-02-09T03:25:46.556Z,8.00
2019-02-09T03:28:20.179Z,8.00
2019-02-09T03:30:53.876Z,8.00
2019-02-09T03:33:27.529Z,8.00
2019-02-09T03:36:01.111Z,8.00
2019-02-09T03:38:35.191Z,8.10
2019-02-09T03:41:08.916Z,8.10
2019-02-09T03:43:42.488Z,8.20
2019-02-09T03:46:16.206Z,8.30
2019-02-09T03:48:49.742Z,8.30
2019-02-09T03:51:23.539Z,8.30
2019-02-09T03:53:57.140Z,8.30
2019-02-09T03:56:30.891Z,8.30
2019-02-09T03:59:04.676Z,8.30
2019-02-09T04:01:38.500Z,8.30
2019-02-09T04:04:12.256Z,8.30
2019-02-09T04:06:46.023Z,8.30
2019-02-09T04:09:19.606Z,8.20
2019-02-09T04:11:53.163Z,8.30
2019-02-09T04:14:26.961Z,8.30
2019-02-09T04:17:00.662Z,8.30
2019-02-09T04:19:34.323Z,8.10
2019-02-09T04:22:07.856Z,7.90
2019-02-09T04:24:41.557Z,7.70
2019-02-09T04:27:15.251Z,7.60
2019-02-09T04:29:48.970Z,7.60
2019-02-09T04:32:23.248Z,7.50
2019-02-09T04:34:56.992Z,7.50
2019-02-09T04:37:31.303Z,7.50
2019-02-09T04:40:05.743Z,7.50
2019-02-09T04:42:39.446Z,7.60
2019-02-09T04:45:12.944Z,7.50
2019-02-09T04:47:46.521Z,7.50
2019-02-09T04:50:20.263Z,7.40
2019-02-09T04:52:53.816Z,7.30
2019-02-09T04:55:28.336Z,7.30
2019-02-09T04:58:01.855Z,7.30
2019-02-09T05:00:35.404Z,7.30
2019-02-09T05:03:08.951Z,7.30
2019-02-09T05:05:42.496Z,7.30
2019-02-09T05:08:16.081Z,7.20
2019-02-09T05:10:49.799Z,7.20
2019-02-09T05:13:23.427Z,7.20
2019-02-09T05:15:57.028Z,7.10
2019-02-09T05:18:30.815Z,7.20
2019-02-09T05:21:04.400Z,7.20
2019-02-09T05:23:37.982Z,7.10
2019-02-09T05:26:11.706Z,7.20
2019-02-09T05:28:45.463Z,7.20
2019-02-09T05:31:23.103Z,7.10
2019-02-09T05:33:52.719Z,7.10
2019-02-09T05:36:26.436Z,7.20
2019-02-09T05:39:00.769Z,7.20
2019-02-09T05:41:34.454Z,7.10
2019-02-09T05:44:08.068Z,7.10
2019-02-09T05:46:41.745Z,7.10
2019-02-09T05:49:15.302Z,7.20
2019-02-09T05:51:49.106Z,7.20
2019-02-09T05:54:22.753Z,7.20
2019-02-09T05:56:56.493Z,7.20
2019-02-09T05:59:30.110Z,7.20
2019-02-09T06:02:03.856Z,7.20
2019-02-09T06:04:37.491Z,7.20
2019-02-09T06:07:12.032Z,7.20
2019-02-09T06:09:45.793Z,7.10
2019-02-09T06:12:19.450Z,7.20
2019-02-09T06:14:53.099Z,7.10
2019-02-09T06:17:26.865Z,7.10
2019-02-09T06:20:00.521Z,7.20
2019-02-09T06:22:34.276Z,7.10
2019-02-09T06:25:07.870Z,7.10
2019-02-09T06:27:41.427Z,7.20
2019-02-09T06:30:24.110Z,7.20
2019-02-09T06:32:57.770Z,7.10
2019-02-09T06:35:32.288Z,7.10
2019-02-09T06:38:05.963Z,7.10
2019-02-09T06:40:39.658Z,7.20
2019-02-09T06:43:14.151Z,7.30
2019-02-09T06:45:47.754Z,7.30
2019-02-09T06:48:24.974Z,7.30
2019-02-09T06:50:58.572Z,7.30
2019-02-09T06:53:32.136Z,7.30
2019-02-09T06:56:05.926Z,7.30
2019-02-09T06:58:39.532Z,7.30
2019-02-09T07:01:13.107Z,7.40
2019-02-09T07:03:46.821Z,7.40
2019-02-09T07:06:20.453Z,7.30
2019-02-09T07:08:54.876Z,7.30
2019-02-09T07:11:29.178Z,7.30
2019-02-09T07:14:02.774Z,7.30
2019-02-09T07:16:37.359Z,7.30
2019-02-09T07:19:11.046Z,7.30
2019-02-09T07:21:44.835Z,7.30
2019-02-09T07:24:18.435Z,7.30
2019-02-09T07:26:52.816Z,7.30
2019-02-09T07:29:26.456Z,7.30
2019-02-09T07:32:00.201Z,7.40
2019-02-09T07:34:33.963Z,7.40
2019-02-09T07:37:07.580Z,7.40
2019-02-09T07:39:41.179Z,7.50
2019-02-09T07:42:14.824Z,7.50
2019-02-09T07:44:48.443Z,7.60
2019-02-09T07:47:22.862Z,7.60
2019-02-09T07:49:56.600Z,7.60
2019-02-09T07:52:31.022Z,7.60
2019-02-09T07:55:04.723Z,7.60
2019-02-09T07:57:39.125Z,7.60
2019-02-09T08:00:23.477Z,7.60
2019-02-09T08:02:57.027Z,7.60
2019-02-09T08:05:31.787Z,9.60
2019-02-09T08:08:05.829Z,9.50
2019-02-09T08:10:40.079Z,10.90
2019-02-09T08:13:14.265Z,11.30
2019-02-09T08:15:48.235Z,12.00
2019-02-09T08:18:22.137Z,11.80
2019-02-09T08:20:57.587Z,12.30
2019-02-09T08:23:31.794Z,13.00
2019-02-09T08:26:05.837Z,13.40
2019-02-09T08:28:39.659Z,13.70
2019-02-09T08:31:14.197Z,14.00
2019-02-09T08:33:47.865Z,13.90
2019-02-09T08:36:21.530Z,13.50
2019-02-09T08:38:55.327Z,13.50
2019-02-09T08:41:29.164Z,14.10
2019-02-09T08:44:03.006Z,14.90
2019-02-09T08:46:36.714Z,15.80
2019-02-09T08:49:10.325Z,16.60
2019-02-09T08:51:44.032Z,16.50
2019-02-09T08:54:17.817Z,16.50
2019-02-09T08:56:51.425Z,16.40
2019-02-09T08:59:25.774Z,17.50
2019-02-09T09:01:59.989Z,17.50
2019-02-09T09:04:34.545Z,15.50
2019-02-09T09:07:08.387Z,16.90
2019-02-09T09:09:42.387Z,17.90
2019-02-09T09:12:16.242Z,17.20
2019-02-09T09:14:49.981Z,16.90
2019-02-09T09:17:23.549Z,17.50
2019-02-09T09:19:57.223Z,18.70
2019-02-09T09:22:31.037Z,16.70
2019-02-09T09:25:04.731Z,14.50
2019-02-09T09:27:39.247Z,12.70
2019-02-09T09:30:24.167Z,12.60
2019-02-09T09:32:58.041Z,12.60
2019-02-09T09:35:31.667Z,13.40
2019-02-09T09:38:05.273Z,14.30
2019-02-09T09:40:42.604Z,15.50
2019-02-09T09:43:16.278Z,16.50
2019-02-09T09:45:50.065Z,16.60
2019-02-09T09:48:23.827Z,17.30
2019-02-09T09:50:57.747Z,18.80
2019-02-09T09:53:32.188Z,15.40
2019-02-09T09:56:06.771Z,15.40
2019-02-09T09:58:40.296Z,13.60
2019-02-09T10:01:14.964Z,11.60
2019-02-09T10:03:48.540Z,11.60
2019-02-09T10:06:22.229Z,11.40
2019-02-09T10:08:55.942Z,11.30
2019-02-09T10:11:29.685Z,11.00
2019-02-09T10:14:08.735Z,10.70
2019-02-09T10:16:37.282Z,10.40
2019-02-09T10:19:11.779Z,12.20
2019-02-09T10:21:46.210Z,12.70
2019-02-09T10:24:20.671Z,12.50
2019-02-09T10:26:54.496Z,12.40
2019-02-09T10:29:28.124Z,13.20
2019-02-09T10:32:01.944Z,14.30
2019-02-09T10:34:35.714Z,14.60
2019-02-09T10:37:09.339Z,14.70
2019-02-09T10:39:43.808Z,14.50
2019-02-09T10:42:17.418Z,14.50
2019-02-09T10:44:51.174Z,15.20
2019-02-09T10:47:24.951Z,15.90
2019-02-09T10:49:59.527Z,15.30
2019-02-09T10:52:33.358Z,15.40
2019-02-09T10:55:07.156Z,13.80
2019-02-09T10:57:41.023Z,12.90
2019-02-09T11:00:15.779Z,12.70
2019-02-09T11:02:52.288Z,12.30
2019-02-09T11:05:23.372Z,12.30
2019-02-09T11:07:57.180Z,12.20
2019-02-09T11:10:31.693Z,12.20
2019-02-09T11:13:05.557Z,12.20
2019-02-09T11:15:40.116Z,12.40
2019-02-09T11:18:14.505Z,12.10
2019-02-09T11:20:48.097Z,12.00
2019-02-09T11:23:21.809Z,12.70
2019-02-09T11:25:55.646Z,13.50
2019-02-09T11:28:29.330Z,14.20
2019-02-09T11:31:02.904Z,14.10
2019-02-09T11:33:36.652Z,14.00
2019-02-09T11:36:10.456Z,14.60
2019-02-09T11:38:44.054Z,14.80
2019-02-09T11:41:17.910Z,13.80
2019-02-09T11:43:51.529Z,13.00
2019-02-09T11:46:25.723Z,12.50
2019-02-09T11:48:58.943Z,12.00
2019-02-09T11:51:32.525Z,12.00
2019-02-09T11:54:06.144Z,12.10
2019-02-09T11:56:39.841Z,12.00
2019-02-09T11:59:14.493Z,11.50
2019-02-09T12:01:48.313Z,11.40
2019-02-09T12:04:23.636Z,11.40
2019-02-09T12:06:57.333Z,11.30
2019-02-09T12:09:31.077Z,11.60
2019-02-09T12:12:05.140Z,11.40
2019-02-09T12:14:38.791Z,11.50
2019-02-09T12:17:12.482Z,11.80
2019-02-09T12:19:46.072Z,11.90
2019-02-09T12:22:20.588Z,12.00
2019-02-09T12:24:54.370Z,12.00
2019-02-09T12:27:28.209Z,12.30
2019-02-09T12:30:01.933Z,12.50
2019-02-09T12:32:35.712Z,12.40
2019-02-09T12:35:09.290Z,12.50
2019-02-09T12:37:43.745Z,12.10
2019-02-09T12:40:18.513Z,12.10
2019-02-09T12:42:52.085Z,12.20
2019-02-09T12:45:25.748Z,12.30
2019-02-09T12:48:00.280Z,12.70
2019-02-09T12:50:34.004Z,12.70
2019-02-09T12:53:07.724Z,12.50
2019-02-09T12:55:41.454Z,12.60
2019-02-09T12:58:15.378Z,12.40
2019-02-09T13:00:49.071Z,12.10
2019-02-09T13:03:30.723Z,12.10
2019-02-09T13:05:56.256Z,12.00
2019-02-09T13:08:30.600Z,12.00
2019-02-09T13:11:04.369Z,12.00
2019-02-09T13:13:38.992Z,12.10
2019-02-09T13:16:12.674Z,12.10
2019-02-09T13:18:46.495Z,12.10
2019-02-09T13:21:21.060Z,12.00
2019-02-09T13:23:54.680Z,12.00
2019-02-09T13:26:28.498Z,12.10
2019-02-09T13:29:02.218Z,11.90
2019-02-09T13:31:35.915Z,11.80
2019-02-09T13:34:09.675Z,11.80
2019-02-09T13:36:43.321Z,11.70
2019-02-09T13:39:17.701Z,11.70
2019-02-09T13:41:52.137Z,11.70
2019-02-09T13:44:26.499Z,11.60
2019-02-09T13:47:00.298Z,11.60
2019-02-09T13:49:34.678Z,11.70
2019-02-09T13:52:08.496Z,11.80
2019-02-09T13:54:42.291Z,11.80
2019-02-09T13:57:16.730Z,11.80
2019-02-09T13:59:50.395Z,11.80
2019-02-09T14:02:24.030Z,11.80
2019-02-09T14:04:58.571Z,11.90
2019-02-09T14:07:32.953Z,11.80
2019-02-09T14:10:06.770Z,11.80
2019-02-09T14:12:40.336Z,11.70
2019-02-09T14:15:17.884Z,11.70
2019-02-09T14:17:51.486Z,11.50
2019-02-09T14:20:25.303Z,11.40
2019-02-09T14:22:58.913Z,11.50
2019-02-09T14:25:32.651Z,11.20
2019-02-09T14:28:06.185Z,11.20
2019-02-09T14:30:39.799Z,11.10
2019-02-09T14:33:13.381Z,11.00
2019-02-09T14:35:47.113Z,11.00
2019-02-09T14:38:20.839Z,11.00
2019-02-09T14:40:55.544Z,11.10
2019-02-09T14:43:29.362Z,11.20
2019-02-09T14:46:03.134Z,11.00
2019-02-09T14:48:36.909Z,11.00
2019-02-09T14:51:10.549Z,10.90
2019-02-09T14:53:44.259Z,10.90
2019-02-09T14:56:18.009Z,11.00
2019-02-09T14:58:52.506Z,10.90
2019-02-09T15:01:26.169Z,10.90
2019-02-09T15:04:02.815Z,10.70
2019-02-09T15:06:33.618Z,10.60
2019-02-09T15:09:07.221Z,10.50
2019-02-09T15:11:40.891Z,10.60
2019-02-09T15:14:14.520Z,10.60
2019-02-09T15:16:48.363Z,10.50
2019-02-09T15:19:22.161Z,10.50
2019-02-09T15:21:55.864Z,10.50
2019-02-09T15:24:29.584Z,10.50
2019-02-09T15:27:03.267Z,10.50
2019-02-09T15:29:37.062Z,10.50
2019-02-09T15:32:10.757Z,10.50
2019-02-09T15:34:44.441Z,10.50
2019-02-09T15:37:19.210Z,10.40
2019-02-09T15:39:52.838Z,10.40
2019-02-09T15:42:26.611Z,10.40
2019-02-09T15:45:00.313Z,10.30
2019-02-09T15:47:34.708Z,10.20
2019-02-09T15:50:09.299Z,10.20
2019-02-09T15:52:43.743Z,10.20
2019-02-09T15:55:21.222Z,10.20
2019-02-09T15:57:54.957Z,10.20
2019-02-09T16:00:29.394Z,10.20
2019-02-09T16:03:03.178Z,10.20
2019-02-09T16:05:36.929Z,10.20
2019-02-09T16:08:10.711Z,10.20
2019-02-09T16:10:44.373Z,10.20
2019-02-09T16:13:18.199Z,10.20
2019-02-09T16:15:52.717Z,10.20
2019-02-09T16:18:25.777Z,10.20
2019-02-09T16:20:59.557Z,10.20
2019-02-09T16:23:33.343Z,10.10
2019-02-09T16:26:07.116Z,10.20
2019-02-09T16:28:40.711Z,10.10
2019-02-09T16:31:14.575Z,10.10
2019-02-09T16:33:48.405Z,10.10
2019-02-09T16:36:22.353Z,10.00
2019-02-09T16:38:58.098Z,10.00
2019-02-09T16:41:32.843Z,10.00
2019-02-09T16:44:07.216Z,10.00
2019-02-09T16:46:40.936Z,10.00
2019-02-09T16:49:14.865Z,10.00
2019-02-09T16:51:48.776Z,10.00
2019-02-09T16:54:22.581Z,10.00
2019-02-09T16:56:56.396Z,10.00
2019-02-09T16:59:30.232Z,9.90
2019-02-09T17:02:03.944Z,9.90
2019-02-09T17:04:37.743Z,9.90
2019-02-09T17:07:12.105Z,9.90
2019-02-09T17:09:45.962Z,9.90
2019-02-09T17:12:20.542Z,9.90
2019-02-09T17:14:55.024Z,9.90
2019-02-09T17:17:28.682Z,9.90
2019-02-09T17:20:02.490Z,9.90
2019-02-09T17:22:37.099Z,9.90
2019-02-09T17:25:12.309Z,9.80
2019-02-09T17:27:46.038Z,9.80
2019-02-09T17:30:26.163Z,9.80
2019-02-09T17:32:59.813Z,9.70
2019-02-09T17:35:33.584Z,9.70
2019-02-09T17:38:07.409Z,9.70
2019-02-09T17:40:44.124Z,9.70
2019-02-09T17:43:18.537Z,9.70
2019-02-09T17:45:52.260Z,9.70
2019-02-09T17:48:26.774Z,9.70
2019-02-09T17:51:00.685Z,9.70
2019-02-09T17:53:34.315Z,9.70
2019-02-09T17:56:08.159Z,9.60
2019-02-09T17:58:41.858Z,9.70
2019-02-09T18:01:15.693Z,9.70
2019-02-09T18:03:50.280Z,9.70
2019-02-09T18:06:23.896Z,9.70
2019-02-09T18:08:57.520Z,9.70
2019-02-09T18:11:31.210Z,9.60
2019-02-09T18:14:04.836Z,9.60
2019-02-09T18:16:38.552Z,9.60
2019-02-09T18:19:13.164Z,9.50
2019-02-09T18:21:46.997Z,9.50
2019-02-09T18:24:21.175Z,9.50
2019-02-09T18:26:55.131Z,9.40
2019-02-09T18:29:29.021Z,9.40
2019-02-09T18:32:02.877Z,9.40
2019-02-09T18:34:36.725Z,9.30
2019-02-09T18:37:10.774Z,9.30
2019-02-09T18:39:44.568Z,9.30
2019-02-09T18:42:18.472Z,9.30
2019-02-09T18:44:52.304Z,9.30
2019-02-09T18:47:27.052Z,9.20
2019-02-09T18:50:01.037Z,9.20
2019-02-09T18:52:35.855Z,9.20
2019-02-09T18:55:11.395Z,9.10
2019-02-09T18:57:45.395Z,9.10
2019-02-09T19:00:21.664Z,9.00
2019-02-09T19:02:56.376Z,9.00
2019-02-09T19:05:30.315Z,9.00
2019-02-09T19:08:04.330Z,9.00
2019-02-09T19:10:38.185Z,9.00
2019-02-09T19:13:12.008Z,8.90
2019-02-09T19:15:46.004Z,8.90
2019-02-09T19:18:19.597Z,8.90
2019-02-09T19:20:54.358Z,8.80
2019-02-09T19:23:28.348Z,8.80
2019-02-09T19:26:02.320Z,8.80
2019-02-09T19:28:36.194Z,8.90
2019-02-09T19:31:10.247Z,8.90
2019-02-09T19:33:44.046Z,8.80
2019-02-09T19:36:17.927Z,8.80
2019-02-09T19:38:51.749Z,8.80
2019-02-09T19:41:25.542Z,8.80
2019-02-09T19:43:59.412Z,8.70
2019-02-09T19:46:33.166Z,8.70
2019-02-09T19:49:06.870Z,8.70
2019-02-09T19:51:40.718Z,8.60
2019-02-09T19:54:15.232Z,8.60
2019-02-09T19:56:49.022Z,8.50
2019-02-09T19:59:22.816Z,8.50
2019-02-09T20:01:57.435Z,8.40
2019-02-09T20:04:32.082Z,8.40
2019-02-09T20:07:05.939Z,8.40
2019-02-09T20:09:39.615Z,8.30
2019-02-09T20:12:14.333Z,8.30
2019-02-09T20:14:48.234Z,8.30
2019-02-09T20:17:22.735Z,8.30
2019-02-09T20:19:56.718Z,8.30
2019-02-09T20:22:31.347Z,8.20
2019-02-09T20:25:05.173Z,8.10
2019-02-09T20:27:38.944Z,8.10
2019-02-09T20:30:15.626Z,8.10
2019-02-09T20:32:49.493Z,8.10
2019-02-09T20:35:27.840Z,8.00
2019-02-09T20:37:57.710Z,8.00
2019-02-09T20:40:34.423Z,8.00
2019-02-09T20:43:08.064Z,8.00
2019-02-09T20:45:41.916Z,8.00
2019-02-09T20:48:15.590Z,8.00
2019-02-09T20:50:49.421Z,8.00
2019-02-09T20:53:23.169Z,8.00
2019-02-09T20:55:56.855Z,8.00
2019-02-09T20:58:30.508Z,8.00
2019-02-09T21:01:04.212Z,8.00
2019-02-09T21:03:37.951Z,8.00
2019-02-09T21:06:11.502Z,8.00
2019-02-09T21:08:45.146Z,7.90
2019-02-09T21:11:18.821Z,7.90
2019-02-09T21:13:53.434Z,7.90
2019-02-09T21:16:27.160Z,7.90
2019-02-09T21:19:00.940Z,7.90
2019-02-09T21:21:34.689Z,7.90
2019-02-09T21:24:08.289Z,7.90
2019-02-09T21:26:42.096Z,7.90
2019-02-09T21:29:15.906Z,7.80
2019-02-09T21:31:49.463Z,7.80
2019-02-09T21:34:23.184Z,7.80
2019-02-09T21:36:57.031Z,7.80
2019-02-09T21:39:33.996Z,7.80
2019-02-09T21:42:04.488Z,7.80
2019-02-09T21:44:38.119Z,7.90
2019-02-09T21:47:11.919Z,7.90
2019-02-09T21:49:45.519Z,7.90
2019-02-09T21:52:19.170Z,7.90
2019-02-09T21:54:52.777Z,7.90
2019-02-09T21:57:26.587Z,7.90
2019-02-09T22:00:01.192Z,7.70
2019-02-09T22:02:42.150Z,7.70
2019-02-09T22:05:08.555Z,7.60
2019-02-09T22:07:42.212Z,7.50
2019-02-09T22:10:17.972Z,7.50
2019-02-09T22:12:51.606Z,7.50
2019-02-09T22:15:25.208Z,7.40
2019-02-09T22:17:58.978Z,7.40
2019-02-09T22:20:32.789Z,7.40
2019-02-09T22:23:06.424Z,7.30
2019-02-09T22:25:40.161Z,7.30
2019-02-09T22:28:13.842Z,7.30
2019-02-09T22:30:48.451Z,7.20
2019-02-09T22:33:24.585Z,7.20
2019-02-09T22:35:59.979Z,7.20
2019-02-09T22:38:30.241Z,7.20
2019-02-09T22:41:03.982Z,7.20
2019-02-09T22:43:37.669Z,7.20
2019-02-09T22:46:11.274Z,7.30
2019-02-09T22:48:45.088Z,7.30
2019-02-09T22:51:18.856Z,7.30
2019-02-09T22:53:53.433Z,7.20
2019-02-09T22:56:27.134Z,7.20
2019-02-09T22:59:00.787Z,7.10
2019-02-09T23:01:35.366Z,7.20
2019-02-09T23:04:13.725Z,7.20
2019-02-09T23:06:52.674Z,7.20
2019-02-09T23:09:24.824Z,7.20
2019-02-09T23:11:58.354Z,7.30
2019-02-09T23:14:31.981Z,7.30
2019-02-09T23:17:05.536Z,7.30
2019-02-09T23:19:39.225Z,7.40
2019-02-09T23:22:13.660Z,7.30
2019-02-09T23:24:47.414Z,7.30
2019-02-09T23:27:20.985Z,7.30
2019-02-09T23:29:54.562Z,7.20
2019-02-09T23:32:28.280Z,7.20
2019-02-09T23:35:01.931Z,7.20
2019-02-09T23:37:35.685Z,7.20
2019-02-09T23:40:09.271Z,7.20
2019-02-09T23:42:43.125Z,7.30
2019-02-09T23:45:17.495Z,7.20
2019-02-09T23:47:51.552Z,7.20
2019-02-09T23:50:26.097Z,7.20
2019-02-09T23:52:59.782Z,7.20
2019-02-09T23:55:33.391Z,7.10
2019-02-09T23:58:06.951Z,7.00
